sensor_id;sensor_type;location;lat;lon;timestamp;P1;durP1;ratioP1;P2;durP2;ratioP2
79338;SDS011;74181;41.704;44.786;2024-03-07T00:02:20;24.20;;;12.10;;
79338;SDS011;74181;41.704;44.786;2024-03-07T00:04:46;21.42;;;11.75;;
79338;SDS011;74181;41.704;44.786;2024-03-07T00:07:12;21.80;;;11.07;;
79338;SDS011;74181;41.704;44.786;2024-03-07T00:09:39;23.83;;;10.75;;
79338;SDS011;74181;41.704;44.786;2024-03-07T00:12:05;22.05;;;11.20;;
79338;SDS011;74181;41.704;44.786;2024-03-07T00:14:33;21.25;;;10.23;;
79338;SDS011;74181;41.704;44.786;2024-03-07T00:17:01;21.40;;;10.85;;
79338;SDS011;74181;41.704;44.786;2024-03-07T00:19:28;20.30;;;9.90;;
79338;SDS011;74181;41.704;44.786;2024-03-07T00:21:56;20.80;;;10.43;;
79338;SDS011;74181;41.704;44.786;2024-03-07T00:24:22;22.77;;;11.20;;
79338;SDS011;74181;41.704;44.786;2024-03-07T00:26:49;22.85;;;11.38;;
79338;SDS011;74181;41.704;44.786;2024-03-07T00:29:17;22.60;;;11.48;;
79338;SDS011;74181;41.704;44.786;2024-03-07T00:31:46;21.83;;;10.47;;
79338;SDS011;74181;41.704;44.786;2024-03-07T00:34:13;20.20;;;10.60;;
79338;SDS011;74181;41.704;44.786;2024-03-07T00:36:42;20.00;;;10.73;;
79338;SDS011;74181;41.704;44.786;2024-03-07T00:39:09;19.42;;;10.07;;
79338;SDS011;74181;41.704;44.786;2024-03-07T00:41:40;19.08;;;10.25;;
79338;SDS011;74181;41.704;44.786;2024-03-07T00:44:07;22.23;;;10.80;;
79338;SDS011;74181;41.704;44.786;2024-03-07T00:46:36;19.20;;;10.38;;
79338;SDS011;74181;41.704;44.786;2024-03-07T00:49:03;21.33;;;10.25;;
79338;SDS011;74181;41.704;44.786;2024-03-07T00:51:29;19.30;;;10.13;;
79338;SDS011;74181;41.704;44.786;2024-03-07T00:53:56;22.35;;;11.18;;
79338;SDS011;74181;41.704;44.786;2024-03-07T00:56:23;20.43;;;10.20;;
79338;SDS011;74181;41.704;44.786;2024-03-07T00:58:50;20.65;;;10.40;;
79338;SDS011;74181;41.704;44.786;2024-03-07T01:01:17;19.25;;;10.05;;
79338;SDS011;74181;41.704;44.786;2024-03-07T01:03:44;22.02;;;11.05;;
79338;SDS011;74181;41.704;44.786;2024-03-07T01:06:11;21.67;;;11.32;;
79338;SDS011;74181;41.704;44.786;2024-03-07T01:08:37;22.50;;;11.70;;
79338;SDS011;74181;41.704;44.786;2024-03-07T01:11:05;21.63;;;10.77;;
79338;SDS011;74181;41.704;44.786;2024-03-07T01:13:36;21.60;;;11.50;;
79338;SDS011;74181;41.704;44.786;2024-03-07T01:16:02;24.27;;;12.00;;
79338;SDS011;74181;41.704;44.786;2024-03-07T01:18:29;20.77;;;11.30;;
79338;SDS011;74181;41.704;44.786;2024-03-07T01:20:55;21.10;;;10.63;;
79338;SDS011;74181;41.704;44.786;2024-03-07T01:23:21;22.58;;;11.23;;
79338;SDS011;74181;41.704;44.786;2024-03-07T01:25:48;21.95;;;11.25;;
79338;SDS011;74181;41.704;44.786;2024-03-07T01:28:14;22.55;;;11.35;;
79338;SDS011;74181;41.704;44.786;2024-03-07T01:30:42;21.20;;;11.65;;
79338;SDS011;74181;41.704;44.786;2024-03-07T01:33:09;22.37;;;11.13;;
79338;SDS011;74181;41.704;44.786;2024-03-07T01:35:35;21.88;;;11.25;;
79338;SDS011;74181;41.704;44.786;2024-03-07T01:38:01;23.80;;;11.60;;
79338;SDS011;74181;41.704;44.786;2024-03-07T01:40:28;22.15;;;11.35;;
79338;SDS011;74181;41.704;44.786;2024-03-07T01:42:54;22.00;;;11.15;;
79338;SDS011;74181;41.704;44.786;2024-03-07T01:45:21;21.63;;;11.33;;
79338;SDS011;74181;41.704;44.786;2024-03-07T01:47:48;22.15;;;11.07;;
79338;SDS011;74181;41.704;44.786;2024-03-07T01:50:14;23.73;;;12.25;;
79338;SDS011;74181;41.704;44.786;2024-03-07T01:52:41;23.63;;;12.00;;
79338;SDS011;74181;41.704;44.786;2024-03-07T01:55:07;23.83;;;12.10;;
79338;SDS011;74181;41.704;44.786;2024-03-07T01:57:36;24.00;;;11.80;;
79338;SDS011;74181;41.704;44.786;2024-03-07T02:00:02;23.02;;;11.18;;
79338;SDS011;74181;41.704;44.786;2024-03-07T02:02:33;23.48;;;11.43;;
79338;SDS011;74181;41.704;44.786;2024-03-07T02:04:59;19.50;;;10.27;;
79338;SDS011;74181;41.704;44.786;2024-03-07T02:07:26;19.92;;;10.55;;
79338;SDS011;74181;41.704;44.786;2024-03-07T02:09:59;21.43;;;10.70;;
79338;SDS011;74181;41.704;44.786;2024-03-07T02:12:27;22.83;;;12.10;;
79338;SDS011;74181;41.704;44.786;2024-03-07T02:14:58;23.42;;;12.45;;
79338;SDS011;74181;41.704;44.786;2024-03-07T02:17:28;22.27;;;11.45;;
79338;SDS011;74181;41.704;44.786;2024-03-07T02:19:54;21.88;;;11.60;;
79338;SDS011;74181;41.704;44.786;2024-03-07T02:22:21;23.13;;;11.40;;
79338;SDS011;74181;41.704;44.786;2024-03-07T02:24:47;19.50;;;10.50;;
79338;SDS011;74181;41.704;44.786;2024-03-07T02:27:13;20.85;;;11.30;;
79338;SDS011;74181;41.704;44.786;2024-03-07T02:29:43;19.55;;;10.10;;
79338;SDS011;74181;41.704;44.786;2024-03-07T02:32:09;20.65;;;10.30;;
79338;SDS011;74181;41.704;44.786;2024-03-07T02:34:35;20.67;;;10.50;;
79338;SDS011;74181;41.704;44.786;2024-03-07T02:37:02;21.13;;;10.85;;
79338;SDS011;74181;41.704;44.786;2024-03-07T02:39:28;23.83;;;11.32;;
79338;SDS011;74181;41.704;44.786;2024-03-07T02:41:55;20.70;;;10.40;;
79338;SDS011;74181;41.704;44.786;2024-03-07T02:44:21;20.35;;;10.75;;
79338;SDS011;74181;41.704;44.786;2024-03-07T02:46:47;18.80;;;10.33;;
79338;SDS011;74181;41.704;44.786;2024-03-07T02:49:13;19.63;;;10.60;;
79338;SDS011;74181;41.704;44.786;2024-03-07T02:51:43;20.23;;;10.52;;
79338;SDS011;74181;41.704;44.786;2024-03-07T02:54:09;18.70;;;10.52;;
79338;SDS011;74181;41.704;44.786;2024-03-07T02:56:35;19.95;;;10.45;;
79338;SDS011;74181;41.704;44.786;2024-03-07T02:59:01;21.30;;;10.83;;
79338;SDS011;74181;41.704;44.786;2024-03-07T03:01:27;18.67;;;10.60;;
79338;SDS011;74181;41.704;44.786;2024-03-07T03:03:53;20.80;;;10.57;;
79338;SDS011;74181;41.704;44.786;2024-03-07T03:06:19;21.60;;;10.63;;
79338;SDS011;74181;41.704;44.786;2024-03-07T03:08:48;20.27;;;10.00;;
79338;SDS011;74181;41.704;44.786;2024-03-07T03:11:14;19.93;;;10.40;;
79338;SDS011;74181;41.704;44.786;2024-03-07T03:13:41;21.08;;;10.55;;
79338;SDS011;74181;41.704;44.786;2024-03-07T03:16:07;20.13;;;10.50;;
79338;SDS011;74181;41.704;44.786;2024-03-07T03:18:35;21.45;;;10.68;;
79338;SDS011;74181;41.704;44.786;2024-03-07T03:21:02;25.23;;;12.73;;
79338;SDS011;74181;41.704;44.786;2024-03-07T03:23:28;24.93;;;12.30;;
79338;SDS011;74181;41.704;44.786;2024-03-07T03:25:55;24.23;;;12.43;;
79338;SDS011;74181;41.704;44.786;2024-03-07T03:28:21;27.60;;;13.00;;
79338;SDS011;74181;41.704;44.786;2024-03-07T03:30:48;26.73;;;13.68;;
79338;SDS011;74181;41.704;44.786;2024-03-07T03:33:15;28.15;;;13.27;;
79338;SDS011;74181;41.704;44.786;2024-03-07T03:35:42;25.30;;;13.50;;
79338;SDS011;74181;41.704;44.786;2024-03-07T03:38:08;28.92;;;14.23;;
79338;SDS011;74181;41.704;44.786;2024-03-07T03:40:35;28.45;;;14.75;;
79338;SDS011;74181;41.704;44.786;2024-03-07T03:43:01;29.90;;;15.40;;
79338;SDS011;74181;41.704;44.786;2024-03-07T03:45:27;32.53;;;15.70;;
79338;SDS011;74181;41.704;44.786;2024-03-07T03:47:54;30.70;;;15.53;;
79338;SDS011;74181;41.704;44.786;2024-03-07T03:50:20;30.30;;;14.50;;
79338;SDS011;74181;41.704;44.786;2024-03-07T03:52:49;29.35;;;14.93;;
79338;SDS011;74181;41.704;44.786;2024-03-07T03:55:16;29.35;;;15.07;;
79338;SDS011;74181;41.704;44.786;2024-03-07T03:57:45;31.85;;;15.10;;
79338;SDS011;74181;41.704;44.786;2024-03-07T04:00:12;31.17;;;15.17;;
79338;SDS011;74181;41.704;44.786;2024-03-07T04:05:06;31.17;;;15.48;;
79338;SDS011;74181;41.704;44.786;2024-03-07T04:07:35;31.33;;;15.80;;
79338;SDS011;74181;41.704;44.786;2024-03-07T04:10:01;36.05;;;16.35;;
79338;SDS011;74181;41.704;44.786;2024-03-07T04:12:40;34.50;;;16.40;;
79338;SDS011;74181;41.704;44.786;2024-03-07T04:15:07;27.23;;;13.80;;
79338;SDS011;74181;41.704;44.786;2024-03-07T04:17:34;27.95;;;13.52;;
79338;SDS011;74181;41.704;44.786;2024-03-07T04:20:01;27.02;;;12.77;;
79338;SDS011;74181;41.704;44.786;2024-03-07T04:22:34;25.35;;;12.40;;
79338;SDS011;74181;41.704;44.786;2024-03-07T04:25:00;23.27;;;11.80;;
79338;SDS011;74181;41.704;44.786;2024-03-07T04:27:30;21.00;;;11.43;;
79338;SDS011;74181;41.704;44.786;2024-03-07T04:29:56;27.30;;;13.25;;
79338;SDS011;74181;41.704;44.786;2024-03-07T04:32:22;32.13;;;14.10;;
79338;SDS011;74181;41.704;44.786;2024-03-07T04:34:49;29.85;;;14.27;;
79338;SDS011;74181;41.704;44.786;2024-03-07T04:37:15;28.30;;;13.73;;
79338;SDS011;74181;41.704;44.786;2024-03-07T04:39:41;28.10;;;13.70;;
79338;SDS011;74181;41.704;44.786;2024-03-07T04:42:08;28.80;;;13.88;;
79338;SDS011;74181;41.704;44.786;2024-03-07T04:44:37;27.40;;;13.70;;
79338;SDS011;74181;41.704;44.786;2024-03-07T04:47:05;32.00;;;14.63;;
79338;SDS011;74181;41.704;44.786;2024-03-07T04:49:31;30.80;;;14.80;;
79338;SDS011;74181;41.704;44.786;2024-03-07T04:51:59;28.65;;;14.40;;
79338;SDS011;74181;41.704;44.786;2024-03-07T04:54:26;32.55;;;15.05;;
79338;SDS011;74181;41.704;44.786;2024-03-07T04:56:53;30.27;;;15.00;;
79338;SDS011;74181;41.704;44.786;2024-03-07T04:59:20;34.97;;;16.25;;
79338;SDS011;74181;41.704;44.786;2024-03-07T05:01:47;31.30;;;16.43;;
79338;SDS011;74181;41.704;44.786;2024-03-07T05:04:15;35.22;;;17.33;;
79338;SDS011;74181;41.704;44.786;2024-03-07T05:06:42;32.75;;;16.77;;
79338;SDS011;74181;41.704;44.786;2024-03-07T05:09:09;32.72;;;15.75;;
79338;SDS011;74181;41.704;44.786;2024-03-07T05:11:49;30.75;;;14.70;;
79338;SDS011;74181;41.704;44.786;2024-03-07T05:14:19;31.13;;;14.10;;
79338;SDS011;74181;41.704;44.786;2024-03-07T05:16:47;27.90;;;13.82;;
79338;SDS011;74181;41.704;44.786;2024-03-07T05:19:31;31.75;;;13.57;;
79338;SDS011;74181;41.704;44.786;2024-03-07T05:21:57;26.30;;;12.65;;
79338;SDS011;74181;41.704;44.786;2024-03-07T05:24:24;24.60;;;11.93;;
79338;SDS011;74181;41.704;44.786;2024-03-07T05:26:50;23.13;;;11.77;;
79338;SDS011;74181;41.704;44.786;2024-03-07T05:29:18;20.08;;;10.10;;
79338;SDS011;74181;41.704;44.786;2024-03-07T05:31:44;20.92;;;10.25;;
79338;SDS011;74181;41.704;44.786;2024-03-07T05:34:14;18.52;;;9.15;;
79338;SDS011;74181;41.704;44.786;2024-03-07T05:36:41;15.68;;;7.22;;
79338;SDS011;74181;41.704;44.786;2024-03-07T05:39:15;12.57;;;6.00;;
79338;SDS011;74181;41.704;44.786;2024-03-07T05:41:43;11.48;;;5.32;;
79338;SDS011;74181;41.704;44.786;2024-03-07T05:44:14;10.18;;;4.65;;
79338;SDS011;74181;41.704;44.786;2024-03-07T05:46:41;11.75;;;4.20;;
79338;SDS011;74181;41.704;44.786;2024-03-07T05:49:12;8.02;;;3.45;;
79338;SDS011;74181;41.704;44.786;2024-03-07T05:51:42;10.83;;;3.20;;
79338;SDS011;74181;41.704;44.786;2024-03-07T05:54:11;10.05;;;3.10;;
79338;SDS011;74181;41.704;44.786;2024-03-07T05:56:39;5.38;;;2.20;;
79338;SDS011;74181;41.704;44.786;2024-03-07T05:59:06;7.97;;;2.47;;
79338;SDS011;74181;41.704;44.786;2024-03-07T06:01:38;6.47;;;2.50;;
79338;SDS011;74181;41.704;44.786;2024-03-07T06:04:09;5.33;;;1.93;;
79338;SDS011;74181;41.704;44.786;2024-03-07T06:06:38;6.20;;;1.65;;
79338;SDS011;74181;41.704;44.786;2024-03-07T06:09:06;3.25;;;1.38;;
79338;SDS011;74181;41.704;44.786;2024-03-07T06:11:35;6.07;;;1.60;;
79338;SDS011;74181;41.704;44.786;2024-03-07T06:14:05;4.53;;;1.60;;
79338;SDS011;74181;41.704;44.786;2024-03-07T06:16:33;4.70;;;1.53;;
79338;SDS011;74181;41.704;44.786;2024-03-07T06:19:04;3.72;;;1.30;;
79338;SDS011;74181;41.704;44.786;2024-03-07T06:21:36;5.03;;;1.70;;
79338;SDS011;74181;41.704;44.786;2024-03-07T06:24:05;4.45;;;1.50;;
79338;SDS011;74181;41.704;44.786;2024-03-07T06:26:34;5.22;;;1.30;;
79338;SDS011;74181;41.704;44.786;2024-03-07T06:29:11;4.07;;;1.30;;
79338;SDS011;74181;41.704;44.786;2024-03-07T06:31:39;5.18;;;1.20;;
79338;SDS011;74181;41.704;44.786;2024-03-07T06:34:07;4.32;;;1.23;;
79338;SDS011;74181;41.704;44.786;2024-03-07T06:36:34;4.25;;;1.55;;
79338;SDS011;74181;41.704;44.786;2024-03-07T06:39:01;5.82;;;1.13;;
79338;SDS011;74181;41.704;44.786;2024-03-07T06:41:34;4.47;;;1.50;;
79338;SDS011;74181;41.704;44.786;2024-03-07T06:44:01;6.20;;;1.77;;
79338;SDS011;74181;41.704;44.786;2024-03-07T06:46:28;4.50;;;1.33;;
79338;SDS011;74181;41.704;44.786;2024-03-07T06:49:00;5.30;;;1.70;;
79338;SDS011;74181;41.704;44.786;2024-03-07T06:51:45;4.55;;;1.90;;
79338;SDS011;74181;41.704;44.786;2024-03-07T06:54:18;4.93;;;2.10;;
79338;SDS011;74181;41.704;44.786;2024-03-07T06:56:45;4.75;;;2.03;;
79338;SDS011;74181;41.704;44.786;2024-03-07T06:59:11;4.90;;;1.77;;
79338;SDS011;74181;41.704;44.786;2024-03-07T07:01:40;5.63;;;1.92;;
79338;SDS011;74181;41.704;44.786;2024-03-07T07:04:08;4.35;;;1.75;;
79338;SDS011;74181;41.704;44.786;2024-03-07T07:06:34;5.83;;;1.90;;
79338;SDS011;74181;41.704;44.786;2024-03-07T07:09:01;6.75;;;2.78;;
79338;SDS011;74181;41.704;44.786;2024-03-07T07:11:29;4.68;;;2.00;;
79338;SDS011;74181;41.704;44.786;2024-03-07T07:13:55;5.85;;;2.10;;
79338;SDS011;74181;41.704;44.786;2024-03-07T07:16:22;5.18;;;2.20;;
79338;SDS011;74181;41.704;44.786;2024-03-07T07:18:48;5.70;;;1.93;;
79338;SDS011;74181;41.704;44.786;2024-03-07T07:21:14;4.38;;;2.00;;
79338;SDS011;74181;41.704;44.786;2024-03-07T07:23:41;5.10;;;2.28;;
79338;SDS011;74181;41.704;44.786;2024-03-07T07:26:08;7.20;;;2.83;;
79338;SDS011;74181;41.704;44.786;2024-03-07T07:28:34;4.97;;;2.15;;
79338;SDS011;74181;41.704;44.786;2024-03-07T07:31:02;5.53;;;2.70;;
79338;SDS011;74181;41.704;44.786;2024-03-07T07:33:29;5.43;;;2.22;;
79338;SDS011;74181;41.704;44.786;2024-03-07T07:35:55;5.28;;;2.10;;
79338;SDS011;74181;41.704;44.786;2024-03-07T07:38:21;4.10;;;1.75;;
79338;SDS011;74181;41.704;44.786;2024-03-07T07:40:47;5.07;;;2.20;;
79338;SDS011;74181;41.704;44.786;2024-03-07T07:43:16;6.27;;;2.33;;
79338;SDS011;74181;41.704;44.786;2024-03-07T07:45:45;5.65;;;2.35;;
79338;SDS011;74181;41.704;44.786;2024-03-07T07:48:11;5.75;;;2.40;;
79338;SDS011;74181;41.704;44.786;2024-03-07T07:50:37;6.22;;;2.28;;
79338;SDS011;74181;41.704;44.786;2024-03-07T07:53:03;6.07;;;2.28;;
79338;SDS011;74181;41.704;44.786;2024-03-07T07:55:35;6.67;;;2.10;;
79338;SDS011;74181;41.704;44.786;2024-03-07T07:58:01;7.72;;;2.22;;
79338;SDS011;74181;41.704;44.786;2024-03-07T08:00:30;7.07;;;2.17;;
79338;SDS011;74181;41.704;44.786;2024-03-07T08:02:58;6.03;;;1.95;;
79338;SDS011;74181;41.704;44.786;2024-03-07T08:05:26;6.88;;;2.30;;
79338;SDS011;74181;41.704;44.786;2024-03-07T08:07:54;4.77;;;1.80;;
79338;SDS011;74181;41.704;44.786;2024-03-07T08:10:26;9.15;;;2.10;;
79338;SDS011;74181;41.704;44.786;2024-03-07T08:12:57;6.05;;;2.20;;
79338;SDS011;74181;41.704;44.786;2024-03-07T08:15:24;5.25;;;2.10;;
79338;SDS011;74181;41.704;44.786;2024-03-07T08:17:52;6.22;;;1.90;;
79338;SDS011;74181;41.704;44.786;2024-03-07T08:20:21;4.47;;;1.67;;
79338;SDS011;74181;41.704;44.786;2024-03-07T08:22:48;3.65;;;1.35;;
79338;SDS011;74181;41.704;44.786;2024-03-07T08:25:23;4.70;;;1.42;;
79338;SDS011;74181;41.704;44.786;2024-03-07T08:27:51;2.60;;;1.10;;
79338;SDS011;74181;41.704;44.786;2024-03-07T08:30:18;4.60;;;1.30;;
79338;SDS011;74181;41.704;44.786;2024-03-07T08:32:45;4.13;;;1.40;;
79338;SDS011;74181;41.704;44.786;2024-03-07T08:35:12;7.03;;;1.80;;
79338;SDS011;74181;41.704;44.786;2024-03-07T08:37:39;8.13;;;1.48;;
79338;SDS011;74181;41.704;44.786;2024-03-07T08:40:06;3.92;;;1.20;;
79338;SDS011;74181;41.704;44.786;2024-03-07T08:42:37;5.05;;;1.20;;
79338;SDS011;74181;41.704;44.786;2024-03-07T08:45:04;4.87;;;1.43;;
79338;SDS011;74181;41.704;44.786;2024-03-07T08:47:33;3.85;;;1.38;;
79338;SDS011;74181;41.704;44.786;2024-03-07T08:50:00;3.53;;;1.23;;
79338;SDS011;74181;41.704;44.786;2024-03-07T08:52:30;5.55;;;1.23;;
79338;SDS011;74181;41.704;44.786;2024-03-07T08:54:56;3.28;;;1.20;;
79338;SDS011;74181;41.704;44.786;2024-03-07T08:57:23;3.63;;;1.27;;
79338;SDS011;74181;41.704;44.786;2024-03-07T08:59:49;3.63;;;0.90;;
79338;SDS011;74181;41.704;44.786;2024-03-07T09:02:15;4.93;;;1.15;;
79338;SDS011;74181;41.704;44.786;2024-03-07T09:04:42;3.25;;;0.80;;
79338;SDS011;74181;41.704;44.786;2024-03-07T09:07:08;3.58;;;1.27;;
79338;SDS011;74181;41.704;44.786;2024-03-07T09:09:34;3.63;;;0.80;;
79338;SDS011;74181;41.704;44.786;2024-03-07T09:12:06;2.83;;;1.00;;
79338;SDS011;74181;41.704;44.786;2024-03-07T09:14:33;3.97;;;1.10;;
79338;SDS011;74181;41.704;44.786;2024-03-07T09:16:59;3.45;;;1.00;;
79338;SDS011;74181;41.704;44.786;2024-03-07T09:19:25;3.42;;;0.70;;
79338;SDS011;74181;41.704;44.786;2024-03-07T09:21:53;2.10;;;0.73;;
79338;SDS011;74181;41.704;44.786;2024-03-07T09:24:20;3.00;;;1.25;;
79338;SDS011;74181;41.704;44.786;2024-03-07T09:26:50;2.30;;;0.80;;
79338;SDS011;74181;41.704;44.786;2024-03-07T09:29:18;4.85;;;1.20;;
79338;SDS011;74181;41.704;44.786;2024-03-07T09:31:45;3.28;;;0.93;;
79338;SDS011;74181;41.704;44.786;2024-03-07T09:34:14;2.60;;;1.00;;
79338;SDS011;74181;41.704;44.786;2024-03-07T09:36:41;2.30;;;1.00;;
79338;SDS011;74181;41.704;44.786;2024-03-07T09:39:08;2.65;;;0.90;;
79338;SDS011;74181;41.704;44.786;2024-03-07T09:41:35;5.70;;;1.10;;
79338;SDS011;74181;41.704;44.786;2024-03-07T09:44:02;4.60;;;1.10;;
79338;SDS011;74181;41.704;44.786;2024-03-07T09:46:29;4.83;;;1.27;;
79338;SDS011;74181;41.704;44.786;2024-03-07T09:48:57;3.10;;;0.90;;
79338;SDS011;74181;41.704;44.786;2024-03-07T09:51:24;3.08;;;0.90;;
79338;SDS011;74181;41.704;44.786;2024-03-07T09:53:51;3.20;;;0.90;;
79338;SDS011;74181;41.704;44.786;2024-03-07T09:56:21;2.67;;;0.90;;
79338;SDS011;74181;41.704;44.786;2024-03-07T09:58:48;2.43;;;0.80;;
79338;SDS011;74181;41.704;44.786;2024-03-07T10:01:19;4.90;;;0.90;;
79338;SDS011;74181;41.704;44.786;2024-03-07T10:03:46;3.70;;;0.95;;
79338;SDS011;74181;41.704;44.786;2024-03-07T10:06:13;4.05;;;1.00;;
79338;SDS011;74181;41.704;44.786;2024-03-07T10:08:40;3.83;;;1.30;;
79338;SDS011;74181;41.704;44.786;2024-03-07T10:11:08;3.80;;;1.20;;
79338;SDS011;74181;41.704;44.786;2024-03-07T10:13:34;4.25;;;0.95;;
79338;SDS011;74181;41.704;44.786;2024-03-07T10:16:01;2.90;;;1.10;;
79338;SDS011;74181;41.704;44.786;2024-03-07T10:18:27;2.65;;;1.10;;
79338;SDS011;74181;41.704;44.786;2024-03-07T10:20:54;3.22;;;1.50;;
79338;SDS011;74181;41.704;44.786;2024-03-07T10:23:21;3.67;;;1.30;;
79338;SDS011;74181;41.704;44.786;2024-03-07T10:25:50;5.07;;;1.00;;
79338;SDS011;74181;41.704;44.786;2024-03-07T10:28:16;3.17;;;1.10;;
79338;SDS011;74181;41.704;44.786;2024-03-07T10:30:43;2.60;;;0.90;;
79338;SDS011;74181;41.704;44.786;2024-03-07T10:33:10;3.28;;;0.85;;
79338;SDS011;74181;41.704;44.786;2024-03-07T10:35:38;3.00;;;1.00;;
79338;SDS011;74181;41.704;44.786;2024-03-07T10:38:04;3.05;;;0.95;;
79338;SDS011;74181;41.704;44.786;2024-03-07T10:40:37;3.33;;;1.10;;
79338;SDS011;74181;41.704;44.786;2024-03-07T10:43:10;3.35;;;0.90;;
79338;SDS011;74181;41.704;44.786;2024-03-07T10:45:40;3.60;;;1.15;;
79338;SDS011;74181;41.704;44.786;2024-03-07T10:48:09;7.23;;;2.37;;
79338;SDS011;74181;41.704;44.786;2024-03-07T10:50:52;3.35;;;1.00;;
79338;SDS011;74181;41.704;44.786;2024-03-07T10:53:40;3.20;;;0.80;;
79338;SDS011;74181;41.704;44.786;2024-03-07T11:04:50;3.72;;;1.20;;
79338;SDS011;74181;41.704;44.786;2024-03-07T11:07:19;3.33;;;1.00;;
79338;SDS011;74181;41.704;44.786;2024-03-07T11:09:47;4.05;;;1.05;;
79338;SDS011;74181;41.704;44.786;2024-03-07T11:12:20;4.25;;;1.00;;
79338;SDS011;74181;41.704;44.786;2024-03-07T11:14:50;4.70;;;0.90;;
79338;SDS011;74181;41.704;44.786;2024-03-07T11:17:20;3.10;;;0.98;;
79338;SDS011;74181;41.704;44.786;2024-03-07T11:19:47;3.70;;;1.10;;
79338;SDS011;74181;41.704;44.786;2024-03-07T11:22:29;3.30;;;1.00;;
79338;SDS011;74181;41.704;44.786;2024-03-07T11:25:02;4.28;;;1.30;;
79338;SDS011;74181;41.704;44.786;2024-03-07T11:27:33;2.47;;;0.90;;
79338;SDS011;74181;41.704;44.786;2024-03-07T11:30:05;3.80;;;1.10;;
79338;SDS011;74181;41.704;44.786;2024-03-07T11:32:36;3.55;;;1.10;;
79338;SDS011;74181;41.704;44.786;2024-03-07T11:35:04;3.28;;;1.00;;
79338;SDS011;74181;41.704;44.786;2024-03-07T11:37:42;3.83;;;1.08;;
79338;SDS011;74181;41.704;44.786;2024-03-07T11:43:03;3.25;;;1.30;;
79338;SDS011;74181;41.704;44.786;2024-03-07T11:45:33;2.72;;;1.08;;
79338;SDS011;74181;41.704;44.786;2024-03-07T11:47:59;3.05;;;1.00;;
79338;SDS011;74181;41.704;44.786;2024-03-07T11:50:32;2.97;;;1.05;;
79338;SDS011;74181;41.704;44.786;2024-03-07T11:53:02;2.37;;;0.73;;
79338;SDS011;74181;41.704;44.786;2024-03-07T11:55:35;3.78;;;1.20;;
79338;SDS011;74181;41.704;44.786;2024-03-07T11:58:12;2.92;;;1.05;;
79338;SDS011;74181;41.704;44.786;2024-03-07T12:00:45;2.50;;;0.90;;
79338;SDS011;74181;41.704;44.786;2024-03-07T12:03:15;3.13;;;1.00;;
79338;SDS011;74181;41.704;44.786;2024-03-07T12:05:49;5.00;;;1.10;;
79338;SDS011;74181;41.704;44.786;2024-03-07T12:08:17;2.25;;;0.90;;
79338;SDS011;74181;41.704;44.786;2024-03-07T12:10:44;3.15;;;1.15;;
79338;SDS011;74181;41.704;44.786;2024-03-07T12:13:11;3.60;;;1.10;;
79338;SDS011;74181;41.704;44.786;2024-03-07T12:15:41;2.58;;;0.98;;
79338;SDS011;74181;41.704;44.786;2024-03-07T12:18:08;2.57;;;0.80;;
79338;SDS011;74181;41.704;44.786;2024-03-07T12:20:36;4.05;;;1.30;;
79338;SDS011;74181;41.704;44.786;2024-03-07T12:23:03;2.97;;;1.10;;
79338;SDS011;74181;41.704;44.786;2024-03-07T12:25:37;3.92;;;1.10;;
79338;SDS011;74181;41.704;44.786;2024-03-07T12:28:06;6.30;;;1.48;;
79338;SDS011;74181;41.704;44.786;2024-03-07T12:33:14;3.08;;;0.90;;
79338;SDS011;74181;41.704;44.786;2024-03-07T12:35:40;3.20;;;1.00;;
79338;SDS011;74181;41.704;44.786;2024-03-07T12:38:09;3.88;;;1.33;;
79338;SDS011;74181;41.704;44.786;2024-03-07T12:40:37;4.60;;;1.00;;
79338;SDS011;74181;41.704;44.786;2024-03-07T12:43:21;4.00;;;1.00;;
79338;SDS011;74181;41.704;44.786;2024-03-07T12:45:48;4.35;;;1.23;;
79338;SDS011;74181;41.704;44.786;2024-03-07T12:48:18;3.47;;;1.10;;
79338;SDS011;74181;41.704;44.786;2024-03-07T12:50:47;3.25;;;0.98;;
79338;SDS011;74181;41.704;44.786;2024-03-07T12:53:23;5.32;;;1.20;;
79338;SDS011;74181;41.704;44.786;2024-03-07T12:55:51;2.47;;;1.00;;
79338;SDS011;74181;41.704;44.786;2024-03-07T12:58:18;3.42;;;1.00;;
79338;SDS011;74181;41.704;44.786;2024-03-07T13:00:52;4.72;;;1.10;;
79338;SDS011;74181;41.704;44.786;2024-03-07T13:03:21;4.25;;;1.20;;
79338;SDS011;74181;41.704;44.786;2024-03-07T13:05:49;3.55;;;1.05;;
79338;SDS011;74181;41.704;44.786;2024-03-07T13:08:15;3.43;;;1.20;;
79338;SDS011;74181;41.704;44.786;2024-03-07T13:10:41;3.38;;;1.13;;
79338;SDS011;74181;41.704;44.786;2024-03-07T13:13:08;4.25;;;1.40;;
79338;SDS011;74181;41.704;44.786;2024-03-07T13:15:38;3.42;;;0.82;;
79338;SDS011;74181;41.704;44.786;2024-03-07T13:18:05;3.10;;;1.10;;
79338;SDS011;74181;41.704;44.786;2024-03-07T13:20:32;3.33;;;1.10;;
79338;SDS011;74181;41.704;44.786;2024-03-07T13:22:58;3.63;;;1.20;;
79338;SDS011;74181;41.704;44.786;2024-03-07T13:25:27;3.90;;;1.05;;
79338;SDS011;74181;41.704;44.786;2024-03-07T13:28:01;4.20;;;1.27;;
79338;SDS011;74181;41.704;44.786;2024-03-07T13:30:29;2.70;;;1.02;;
79338;SDS011;74181;41.704;44.786;2024-03-07T13:32:56;6.97;;;2.70;;
79338;SDS011;74181;41.704;44.786;2024-03-07T13:35:23;3.90;;;1.10;;
79338;SDS011;74181;41.704;44.786;2024-03-07T13:37:52;3.17;;;1.50;;
79338;SDS011;74181;41.704;44.786;2024-03-07T13:40:25;3.20;;;1.30;;
79338;SDS011;74181;41.704;44.786;2024-03-07T13:42:56;3.20;;;1.20;;
79338;SDS011;74181;41.704;44.786;2024-03-07T13:45:29;3.40;;;1.00;;
79338;SDS011;74181;41.704;44.786;2024-03-07T13:48:06;3.33;;;1.00;;
79338;SDS011;74181;41.704;44.786;2024-03-07T13:50:33;3.78;;;1.10;;
79338;SDS011;74181;41.704;44.786;2024-03-07T13:53:00;5.05;;;1.30;;
79338;SDS011;74181;41.704;44.786;2024-03-07T14:06:49;2.97;;;1.10;;
79338;SDS011;74181;41.704;44.786;2024-03-07T14:12:12;3.07;;;0.80;;
79338;SDS011;74181;41.704;44.786;2024-03-07T14:23:45;4.05;;;1.38;;
79338;SDS011;74181;41.704;44.786;2024-03-07T14:29:01;4.50;;;1.20;;
79338;SDS011;74181;41.704;44.786;2024-03-07T14:31:39;3.00;;;0.93;;
79338;SDS011;74181;41.704;44.786;2024-03-07T14:34:20;2.35;;;0.85;;
79338;SDS011;74181;41.704;44.786;2024-03-07T14:36:52;3.22;;;1.00;;
79338;SDS011;74181;41.704;44.786;2024-03-07T14:39:23;3.20;;;1.27;;
79338;SDS011;74181;41.704;44.786;2024-03-07T14:44:16;3.83;;;1.50;;
79338;SDS011;74181;41.704;44.786;2024-03-07T14:46:43;3.92;;;1.60;;
79338;SDS011;74181;41.704;44.786;2024-03-07T14:49:14;5.90;;;1.77;;
79338;SDS011;74181;41.704;44.786;2024-03-07T14:51:43;3.83;;;1.40;;
79338;SDS011;74181;41.704;44.786;2024-03-07T14:54:10;3.47;;;1.30;;
79338;SDS011;74181;41.704;44.786;2024-03-07T14:56:36;5.15;;;1.42;;
79338;SDS011;74181;41.704;44.786;2024-03-07T14:59:03;5.47;;;1.50;;
79338;SDS011;74181;41.704;44.786;2024-03-07T15:01:32;3.58;;;1.25;;
79338;SDS011;74181;41.704;44.786;2024-03-07T15:04:00;4.97;;;1.50;;
79338;SDS011;74181;41.704;44.786;2024-03-07T15:06:29;5.75;;;1.20;;
79338;SDS011;74181;41.704;44.786;2024-03-07T15:08:58;4.00;;;1.45;;
79338;SDS011;74181;41.704;44.786;2024-03-07T15:13:58;4.80;;;1.20;;
79338;SDS011;74181;41.704;44.786;2024-03-07T15:16:25;3.37;;;1.30;;
79338;SDS011;74181;41.704;44.786;2024-03-07T15:18:54;3.85;;;1.50;;